Latest Weather Observations for Noonamah

IDD60801

Issued at 8:35 pm CST Monday 20 October 2014 (issued every 30 minutes, with the page automatically refreshed every 10 minutes)

About weather observations | Map of weather stations | Latest weather observations for NT | Other Formats
Station Details ID: 014314 Name: NOONAMAH AIRSTRIP Lat: -12.61 Lon: 131.05 Height: 17.5 m
Data from the previous 72 hours. | See also: Recent months for locations in Northern Territory
Date/Time
CST
Temp
°C
App
Temp
°C
Dew
Point
Rel
Hum
%
Delta-T
°C
Wind Press
QNH
hPa
Press
MSL
hPa
Rain
since 9 am
mm
Dir
 
Spd
km/h
Gust
km/h
Spd
kts
Gust
kts
20/08:30pm 29.8 31.6 18.3 50 7.4 WNW 6 13 3 7 1012.2 1012.0 0.0
20/08:00pm 29.5 30.5 17.7 49 7.5 W 9 9 5 5 1011.6 1011.4 0.0
20/07:30pm 30.1 31.2 17.2 46 8.2 W 7 15 4 8 1011.1 1010.9 0.0
20/07:00pm 30.8 31.5 16.0 40 9.2 W 7 15 4 8 1010.5 1010.3 0.0
20/06:30pm 31.5 31.6 16.6 40 9.4 WNW 11 19 6 10 1010.1 1009.9 0.0
20/06:00pm 32.3 32.6 17.0 40 9.7 NW 11 22 6 12 1009.6 1009.4 0.0
20/05:30pm 33.3 33.6 17.1 38 10.4 NNW 11 17 6 9 1009.0 1008.8 0.0
20/05:00pm 33.6 34.2 17.7 38 10.2 NW 11 20 6 11 1008.6 1008.4 0.0
20/04:30pm 33.7 34.5 19.0 42 9.7 N 13 22 7 12 1008.5 1008.3 0.0
20/04:00pm 37.0 33.7 7.9 17 16.5 SE 15 20 8 11 1008.5 1008.3 0.0
20/03:30pm 38.3 35.9 11.4 20 16.1 SE 15 22 8 12 1008.7 1008.5 0.0
20/03:00pm 37.2 34.9 11.9 22 15.2 ESE 15 28 8 15 1009.0 1008.8 0.0
20/02:30pm 37.5 34.4 11.5 21 15.6 SSE 19 26 10 14 1009.4 1009.2 0.0
20/02:00pm 37.4 34.3 12.1 22 15.2 SE 20 39 11 21 1010.0 1009.8 0.0
20/01:30pm 36.2 33.3 12.4 24 14.4 ESE 19 22 10 12 1010.7 1010.5 0.0
20/01:00pm 36.0 35.4 14.6 27 13.3 SSE 11 30 6 16 1011.5 1011.3 0.0
20/12:30pm 34.1 33.6 16.0 34 11.4 SE 13 20 7 11 1012.4 1012.2 0.0
20/12:00pm 34.5 34.6 15.4 32 11.9 ESE 9 19 5 10 1012.7 1012.5 0.0
20/11:30am 34.2 34.7 16.5 34 11.2 SSE 9 17 5 9 1013.3 1013.1 0.0
20/11:00am 33.2 32.9 16.5 36 10.6 E 13 26 7 14 1013.8 1013.6 0.0
20/10:30am 32.8 32.6 16.6 38 10.2 E 13 20 7 11 1014.3 1014.1 0.0
20/10:00am 30.9 32.9 20.8 55 6.7 E 11 20 6 11 1014.7 1014.5 0.0
20/09:30am 30.0 32.3 21.4 60 5.8 ENE 11 17 6 9 1014.8 1014.6 0.0
20/09:00am 29.9 33.0 22.1 63 5.3 E 9 15 5 8 1014.6 1014.4 0.0
20/08:30am 28.9 32.2 21.9 66 4.7 E 7 13 4 7 1014.5 1014.3 0.0
20/08:00am 27.8 31.5 22.5 73 3.6 E 7 9 4 5 1014.3 1014.1 0.0
20/07:30am 26.9 30.8 22.5 77 3.0 E 6 9 3 5 1014.0 1013.8 0.0
20/07:00am 26.0 30.8 22.9 83 2.1 ESE 2 4 1 2 1013.7 1013.5 0.0
20/06:30am 25.4 30.4 22.5 84 2.0 CALM 0 0 0 0 1013.4 1013.2 0.0
20/06:00am 25.6 30.8 22.9 85 1.8 CALM 0 0 0 0 1013.2 1013.0 0.0
20/05:30am 25.3 30.0 22.6 85 1.8 S 2 4 1 2 1012.9 1012.7 0.0
20/05:00am 25.7 30.0 22.6 83 2.1 E 4 7 2 4 1012.6 1012.4 0.0
20/04:30am 26.0 31.1 22.7 82 2.2 CALM 0 6 0 3 1012.5 1012.3 0.0
20/04:00am 26.2 30.9 22.7 81 2.4 N 2 4 1 2 1012.5 1012.3 0.0
20/03:30am 26.3 31.1 22.8 81 2.4 ENE 2 7 1 4 1012.5 1012.3 0.0
20/03:00am 26.5 31.8 23.0 81 2.4 CALM 0 0 0 0 1012.2 1012.0 0.0
20/02:30am 26.9 31.0 23.2 80 2.5 ENE 7 13 4 7 1012.3 1012.1 0.0
20/02:00am 27.7 32.5 23.5 78 2.9 ENE 4 7 2 4 1012.5 1012.3 0.0
20/01:30am 28.1 32.3 23.2 74 3.4 NNE 6 7 3 4 1012.5 1012.3 0.0
20/01:00am 28.0 32.9 23.6 77 3.0 N 4 6 2 3 1012.9 1012.7 0.0
20/12:30am 28.0 32.5 22.9 74 3.5 N 4 6 2 3 1013.1 1012.9 0.0
20/12:00am 27.6 31.3 22.3 73 3.6 NNE 6 7 3 4 1013.2 1013.0 0.0
 
Date/Time
CST
Temp
°C
App
Temp
°C
Dew
Point
Rel
Hum
%
Delta-T
°C
Wind Press
QNH
hPa
Press
MSL
hPa
Rain
since 9 am
mm
Dir
 
Spd
km/h
Gust
km/h
Spd
kts
Gust
kts
19/11:30pm 27.9 31.8 22.6 73 3.6 NNE 6 9 3 5 1013.5 1013.3 0.0
19/11:00pm 27.2 30.9 22.2 74 3.4 NE 6 7 3 4 1013.5 1013.3 0.0
19/10:30pm 27.3 31.5 21.8 72 3.7 NNE 2 4 1 2 1013.3 1013.1 0.0
19/10:00pm 27.5 31.6 21.5 70 4.0 NNW 2 4 1 2 1012.9 1012.7 0.0
19/09:30pm 28.2 31.5 21.5 67 4.5 E 6 7 3 4 1012.5 1012.3 0.0
19/09:00pm 28.7 32.3 21.2 64 5.0 NE 4 9 2 5 1012.1 1011.9 0.0
19/08:30pm 28.9 32.3 20.9 62 5.3 N 4 9 2 5 1011.6 1011.4 0.0
19/08:00pm 29.5 32.7 20.4 58 6.0 NNE 4 6 2 3 1011.0 1010.8 0.0
19/07:30pm 29.9 32.7 20.5 57 6.2 NNE 6 11 3 6 1010.5 1010.3 0.0
19/07:00pm 30.6 32.3 20.2 53 6.9 NE 11 20 6 11 1009.8 1009.6 0.0
19/06:30pm 31.7 32.9 19.0 47 8.3 NE 11 20 6 11 1009.4 1009.2 0.0
19/06:00pm 33.2 33.8 18.6 42 9.5 NE 13 22 7 12 1009.0 1008.8 0.0
19/05:30pm 34.2 34.3 19.1 41 9.9 NE 17 26 9 14 1008.5 1008.3 0.0
19/05:00pm 35.3 36.6 19.2 38 10.6 NE 11 20 6 11 1008.2 1008.0 0.0
19/04:30pm 35.6 37.4 18.7 37 11.1 ENE 7 11 4 6 1008.3 1008.1 0.0
19/04:00pm 35.6 37.2 18.2 35 11.4 NNE 7 13 4 7 1008.3 1008.1 0.0
19/03:30pm 35.1 36.1 18.6 37 10.8 ENE 11 17 6 9 1008.7 1008.5 0.0
19/03:00pm 35.3 36.4 17.0 33 11.8 NNE 7 11 4 6 1008.9 1008.7 0.0
19/02:30pm 35.4 36.3 18.5 37 11.1 NNE 11 17 6 9 1009.2 1009.0 0.0
19/02:00pm 35.7 36.2 17.4 33 11.8 NNE 11 24 6 13 1009.4 1009.2 0.0
19/01:30pm 35.6 34.9 15.3 29 12.7 ENE 13 24 7 13 1010.1 1009.9 0.0
19/01:00pm 35.1 35.7 16.9 34 11.6 SE 9 20 5 11 1010.8 1010.6 0.0
19/12:30pm 34.4 34.4 17.2 36 11.0 E 13 20 7 11 1011.5 1011.3 0.0
19/12:00pm 33.7 34.3 17.8 38 10.3 NE 11 30 6 16 1012.0 1011.8 0.0
19/11:30am 33.9 35.5 19.2 42 9.7 NE 9 20 5 11 1012.5 1012.3 0.0
19/11:00am 33.0 34.2 19.8 45 8.7 E 13 20 7 11 1013.0 1012.8 0.0
19/10:30am 32.5 34.1 20.7 49 7.9 ENE 13 22 7 12 1013.5 1013.3 0.0
19/10:00am 31.7 33.0 20.9 52 7.2 E 15 26 8 14 1013.7 1013.5 0.0
19/09:30am 30.9 33.4 21.7 58 6.2 E 11 19 6 10 1013.7 1013.5 0.0
19/09:00am 29.8 32.6 22.3 64 5.1 ENE 11 17 6 9 1013.9 1013.7 0.0
19/08:30am 29.0 32.0 22.7 69 4.3 ENE 11 17 6 9 1013.9 1013.7 0.0
19/08:00am 27.6 31.5 22.5 74 3.5 E 6 9 3 5 1013.7 1013.5 0.0
19/07:30am 26.4 30.6 22.5 79 2.6 ESE 4 6 2 3 1013.4 1013.2 0.0
19/07:00am 24.5 29.6 22.6 89 1.3 CALM 0 4 0 2 1013.0 1012.8 0.0
19/06:30am 23.6 28.2 21.7 89 1.3 CALM 0 0 0 0 1012.6 1012.4 0.0
19/06:00am 23.8 27.9 21.5 87 1.5 E 2 4 1 2 1012.3 1012.1 0.0
19/05:30am 24.2 28.6 22.1 88 1.4 E 2 4 1 2 1012.2 1012.0 0.0
19/05:00am 24.1 28.7 21.8 87 1.5 CALM 0 0 0 0 1012.0 1011.8 0.0
19/04:30am 25.0 29.6 22.5 86 1.7 ESE 2 4 1 2 1011.9 1011.7 0.0
19/04:00am 24.8 28.7 22.5 87 1.5 E 6 7 3 4 1011.9 1011.7 0.0
19/03:30am 24.7 28.4 22.2 86 1.7 E 6 7 3 4 1011.7 1011.5 0.0
19/03:00am 24.5 27.8 21.4 83 2.0 ESE 6 7 3 4 1011.8 1011.6 0.0
19/02:30am 24.0 26.8 19.7 77 2.8 ESE 4 4 2 2 1011.6 1011.4 0.0
19/02:00am 23.9 27.4 19.6 77 2.8 CALM 0 4 0 2 1011.4 1011.2 0.0
19/01:30am 24.0 27.3 19.1 74 3.1 CALM 0 0 0 0 1011.7 1011.5 0.0
19/01:00am 24.2 26.9 17.7 67 4.1 CALM 0 0 0 0 1011.9 1011.7 0.0
19/12:30am 24.6 27.3 17.8 66 4.3 CALM 0 0 0 0 1012.0 1011.8 0.0
19/12:00am 24.3 26.9 17.5 66 4.2 CALM 0 0 0 0 1012.2 1012.0 0.0
 
Date/Time
CST
Temp
°C
App
Temp
°C
Dew
Point
Rel
Hum
%
Delta-T
°C
Wind Press
QNH
hPa
Press
MSL
hPa
Rain
since 9 am
mm
Dir
 
Spd
km/h
Gust
km/h
Spd
kts
Gust
kts
18/11:30pm 24.8 27.5 17.8 65 4.4 CALM 0 0 0 0 1012.4 1012.2 0.0
18/11:00pm 24.6 26.6 16.1 59 5.2 CALM 0 0 0 0 1012.4 1012.2 0.0
18/10:30pm 24.9 26.8 15.8 57 5.5 CALM 0 0 0 0 1012.2 1012.0 0.0
18/10:00pm 25.9 27.9 15.9 54 6.1 CALM 0 0 0 0 1012.1 1011.9 0.0
18/09:30pm 26.5 27.9 15.5 50 6.7 ESE 2 7 1 4 1011.9 1011.7 0.0
18/09:00pm 27.9 29.5 15.9 48 7.4 E 2 7 1 4 1011.7 1011.5 0.0
18/08:30pm 27.7 28.8 14.7 45 7.9 NNE 2 4 1 2 1011.3 1011.1 0.0
18/08:00pm 28.6 29.6 13.3 39 9.1 CALM 0 4 0 2 1011.0 1010.8 0.0
18/07:30pm 30.0 30.5 12.9 35 10.1 N 2 4 1 2 1010.3 1010.1 0.0
18/07:00pm 31.4 31.1 12.7 32 11.1 NE 6 9 3 5 1009.9 1009.7 0.0
18/06:30pm 32.6 32.5 13.3 31 11.6 NNE 6 7 3 4 1009.6 1009.4 0.0
18/06:00pm 33.6 33.4 14.6 31 11.7 N 9 15 5 8 1009.2 1009.0 0.0
18/05:30pm 34.2 34.7 16.5 34 11.2 N 9 19 5 10 1008.7 1008.5 0.0
18/05:00pm 34.7 35.0 17.0 35 11.3 NNW 11 19 6 10 1008.4 1008.2 0.0
18/04:30pm 35.1 34.4 17.3 34 11.5 NNW 17 22 9 12 1008.3 1008.1 0.0
18/04:00pm 35.5 35.7 17.7 35 11.5 NW 13 22 7 12 1008.3 1008.1 0.0
18/03:30pm 38.1 34.2 1.2 10 19.0 E 11 24 6 13 1008.4 1008.2 0.0
18/03:00pm 38.0 34.5 1.1 10 18.9 NNE 9 22 5 12 1008.6 1008.4 0.0
18/02:30pm 38.5 35.0 1.5 10 19.1 SE 9 19 5 10 1009.0 1008.8 0.0
18/02:00pm 37.5 32.4 3.3 12 18.1 SE 19 26 10 14 1009.6 1009.4 0.0
18/01:30pm 36.7 34.1 5.9 15 16.9 E 9 24 5 13 1010.2 1010.0 0.0
18/01:00pm 36.9 33.5 6.0 15 17.0 ENE 13 19 7 10 1010.8 1010.6 0.0
18/12:30pm 36.0 32.5 7.1 17 16.1 SE 15 26 8 14 1011.4 1011.2 0.0
18/12:00pm 35.2 34.2 10.9 23 14.3 E 7 22 4 12 1012.2 1012.0 0.0
18/11:30am 34.5 35.0 13.9 29 12.6 ENE 4 19 2 10 1012.7 1012.5 0.0
18/11:00am 32.9 34.3 15.4 35 10.9 E 2 13 1 7 1013.2 1013.0 0.0
18/10:30am 32.7 33.8 15.7 36 10.6 E 4 15 2 8 1013.7 1013.5 0.0
18/10:00am 32.0 32.1 15.5 37 10.2 ENE 9 19 5 10 1013.8 1013.6 0.0
18/09:30am 31.1 33.0 16.7 42 9.1 E 2 9 1 5 1013.8 1013.6 0.0
18/09:00am 29.9 32.1 17.4 47 7.9 E 2 13 1 7 1013.9 1013.7 0.0
18/08:30am 29.3 32.0 17.8 50 7.3 CALM 0 0 0 0 1013.9 1013.7 0.0
18/08:00am 27.2 30.6 19.3 62 5.1 CALM 0 0 0 0 1013.9 1013.7 0.0
18/07:30am 24.2 28.0 20.1 78 2.7 CALM 0 0 0 0 1013.5 1013.3 0.0
18/07:00am 21.7 25.1 19.3 86 1.5 CALM 0 0 0 0 1013.2 1013.0 0.0
18/06:30am 21.7 24.9 18.9 84 1.8 CALM 0 0 0 0 1012.8 1012.6 0.0
18/06:00am 21.9 25.1 18.9 83 1.9 CALM 0 0 0 0 1012.5 1012.3 0.0
18/05:30am 22.3 25.8 19.5 84 1.8 CALM 0 0 0 0 1012.3 1012.1 0.0
18/05:00am 22.4 25.7 19.2 82 2.0 CALM 0 0 0 0 1012.2 1012.0 0.0
18/04:30am 22.4 25.6 18.8 80 2.3 CALM 0 0 0 0 1011.8 1011.6 0.0
18/04:00am 22.2 25.4 18.8 81 2.1 CALM 0 0 0 0 1011.7 1011.5 0.0
18/03:30am 22.0 24.9 18.2 79 2.4 CALM 0 0 0 0 1011.5 1011.3 0.0
18/03:00am 22.6 25.5 18.2 76 2.8 CALM 0 0 0 0 1011.5 1011.3 0.0
18/02:30am 22.9 26.0 18.7 77 2.7 CALM 0 0 0 0 1011.8 1011.6 0.0
18/02:00am 23.3 26.6 19.2 78 2.6 CALM 0 0 0 0 1012.0 1011.8 0.0
18/01:30am 22.4 25.1 17.8 75 2.9 CALM 0 0 0 0 1012.3 1012.1 0.0
18/01:00am 22.3 24.9 17.4 74 3.0 CALM 0 0 0 0 1012.2 1012.0 0.0
18/12:30am 22.5 25.1 17.6 74 3.0 CALM 0 0 0 0 1012.3 1012.1 0.0
18/12:00am 22.5 25.0 17.2 72 3.3 CALM 0 0 0 0 1012.3 1012.1 0.0
 
Date/Time
CST
Temp
°C
App
Temp
°C
Dew
Point
Rel
Hum
%
Delta-T
°C
Wind Press
QNH
hPa
Press
MSL
hPa
Rain
since 9 am
mm
Dir
 
Spd
km/h
Gust
km/h
Spd
kts
Gust
kts
17/11:30pm 22.5 25.0 17.2 72 3.3 CALM 0 0 0 0 1012.4 1012.2 0.0
17/11:00pm 23.1 25.6 17.3 70 3.6 CALM 0 0 0 0 1012.7 1012.5 0.0
17/10:30pm 22.9 25.3 16.9 69 3.7 CALM 0 0 0 0 1012.9 1012.7 0.0
17/10:00pm 23.6 25.8 16.4 64 4.4 CALM 0 0 0 0 1012.4 1012.2 0.0
17/09:30pm 25.0 27.3 16.7 60 5.1 CALM 0 0 0 0 1012.0 1011.8 0.0
17/09:00pm 26.1 28.3 16.6 55 5.9 CALM 0 0 0 0 1011.7 1011.5 0.0

Other Formats:

Comma delimited format used in spreadsheet applications
http://www.bom.gov.au/fwo/IDD60801/IDD60801.94105.axf

JavaScript Object Notation format (JSON) in row-major order
http://www.bom.gov.au/fwo/IDD60801/IDD60801.94105.json